Freeport, Florida
Current Conditions -  °F | °C
As of 10:35 PM on Saturday 20 Dec 2014 (Local Time) from K54J Reporting Station
Overcast Overcast  
Wind Chill: 51°   Ceiling: 600
Heat Index: 51°   Visibility: 10mi
Dew Point: 50°   Wind: 8mph
Humidity: 95%   Direction: 30°NNE
Pressure: 30.13"   Gusts: NA
Location:  30.5°N, 86.14°W
Report Text: K54J 210435Z AUTO 03007KT 10SM OVC006 11/10 A3013 RMK AO2 T01050098
Loading
Personal Weather Stations






























Interactive Weather Map New forecast layout! Learn more

10-Day Weather Forecast

Advertisements
Track Severe Weather on mobile